Terminal Aerodrome Forecast
Issued by NWS

Current Version | Previous Version | Text Only | Print | Product List | Glossary On
Versions: 1 2 3 4 5 6 7 8 9 10 11 12 13 14
000
FTUS45 KGJT 281751
TAFRIL
TAF
KRIL 281751Z 2818/2918 30009KT P6SM FEW250
     FM282000 28014G23KT P6SM FEW250
     FM290100 25016G24KT P6SM SCT250
     FM290300 24006KT P6SM FEW200
     FM291100 32005KT P6SM FEW250=

USA.gov is the U.S. government's official web portal to all federal, state and local government web resources and services.